sensor_id;sensor_type;location;lat;lon;timestamp;temperature;humidity
43524;DHT22;29120;52.006;6.020;2022-09-09T00:01:59;16.50;95.20
43524;DHT22;29120;52.006;6.020;2022-09-09T00:04:37;16.50;95.20
43524;DHT22;29120;52.006;6.020;2022-09-09T00:18:20;16.50;95.30
43524;DHT22;29120;52.006;6.020;2022-09-09T00:21:01;16.50;95.30
43524;DHT22;29120;52.006;6.020;2022-09-09T00:23:40;16.50;95.30
43524;DHT22;29120;52.006;6.020;2022-09-09T00:26:16;16.50;95.30
43524;DHT22;29120;52.006;6.020;2022-09-09T00:28:52;16.50;95.40
43524;DHT22;29120;52.006;6.020;2022-09-09T00:31:23;16.60;95.40
43524;DHT22;29120;52.006;6.020;2022-09-09T00:33:50;16.60;95.40
43524;DHT22;29120;52.006;6.020;2022-09-09T00:36:21;16.60;95.40
43524;DHT22;29120;52.006;6.020;2022-09-09T00:39:01;16.60;95.40
43524;DHT22;29120;52.006;6.020;2022-09-09T00:44:33;16.70;95.50
43524;DHT22;29120;52.006;6.020;2022-09-09T00:47:15;16.70;95.50
43524;DHT22;29120;52.006;6.020;2022-09-09T00:50:00;16.70;95.50
43524;DHT22;29120;52.006;6.020;2022-09-09T00:52:52;16.70;95.40
43524;DHT22;29120;52.006;6.020;2022-09-09T00:55:38;16.70;95.40
43524;DHT22;29120;52.006;6.020;2022-09-09T00:58:07;16.70;95.50
43524;DHT22;29120;52.006;6.020;2022-09-09T01:00:42;16.70;95.50
43524;DHT22;29120;52.006;6.020;2022-09-09T01:06:11;16.60;95.40
43524;DHT22;29120;52.006;6.020;2022-09-09T01:11:49;16.60;95.50
43524;DHT22;29120;52.006;6.020;2022-09-09T01:17:05;16.50;95.50
43524;DHT22;29120;52.006;6.020;2022-09-09T01:22:28;16.30;95.50
43524;DHT22;29120;52.006;6.020;2022-09-09T01:25:15;16.20;95.80
43524;DHT22;29120;52.006;6.020;2022-09-09T01:27:46;16.10;96.00
43524;DHT22;29120;52.006;6.020;2022-09-09T01:30:16;16.10;96.00
43524;DHT22;29120;52.006;6.020;2022-09-09T01:32:49;16.10;96.00
43524;DHT22;29120;52.006;6.020;2022-09-09T01:38:05;16.00;96.00
43524;DHT22;29120;52.006;6.020;2022-09-09T01:40:31;16.00;96.00
43524;DHT22;29120;52.006;6.020;2022-09-09T01:42:57;15.90;96.10
43524;DHT22;29120;52.006;6.020;2022-09-09T01:45:23;15.90;96.10
43524;DHT22;29120;52.006;6.020;2022-09-09T01:47:51;15.90;96.20
43524;DHT22;29120;52.006;6.020;2022-09-09T01:50:17;15.80;96.10
43524;DHT22;29120;52.006;6.020;2022-09-09T01:52:45;15.80;96.20
43524;DHT22;29120;52.006;6.020;2022-09-09T01:55:13;15.80;96.30
43524;DHT22;29120;52.006;6.020;2022-09-09T02:00:16;15.70;96.30
43524;DHT22;29120;52.006;6.020;2022-09-09T02:03:05;15.70;96.30
43524;DHT22;29120;52.006;6.020;2022-09-09T02:05:40;15.70;96.30
43524;DHT22;29120;52.006;6.020;2022-09-09T02:08:16;15.60;96.30
43524;DHT22;29120;52.006;6.020;2022-09-09T02:10:50;15.60;96.40
43524;DHT22;29120;52.006;6.020;2022-09-09T02:13:19;15.60;96.50
43524;DHT22;29120;52.006;6.020;2022-09-09T02:15:48;15.60;96.50
43524;DHT22;29120;52.006;6.020;2022-09-09T02:18:22;15.50;96.50
43524;DHT22;29120;52.006;6.020;2022-09-09T02:20:50;15.50;96.50
43524;DHT22;29120;52.006;6.020;2022-09-09T02:23:17;15.50;96.50
43524;DHT22;29120;52.006;6.020;2022-09-09T02:25:43;15.50;96.50
43524;DHT22;29120;52.006;6.020;2022-09-09T02:28:10;15.50;96.50
43524;DHT22;29120;52.006;6.020;2022-09-09T02:30:39;15.40;96.50
43524;DHT22;29120;52.006;6.020;2022-09-09T02:33:07;15.40;96.60
43524;DHT22;29120;52.006;6.020;2022-09-09T02:35:36;15.40;96.50
43524;DHT22;29120;52.006;6.020;2022-09-09T02:38:05;15.30;96.50
43524;DHT22;29120;52.006;6.020;2022-09-09T02:40:32;15.30;96.50
43524;DHT22;29120;52.006;6.020;2022-09-09T02:42:57;15.30;96.50
43524;DHT22;29120;52.006;6.020;2022-09-09T02:45:38;15.30;96.50
43524;DHT22;29120;52.006;6.020;2022-09-09T02:48:29;15.20;96.50
43524;DHT22;29120;52.006;6.020;2022-09-09T02:51:23;15.20;96.50
43524;DHT22;29120;52.006;6.020;2022-09-09T02:53:57;15.10;96.50
43524;DHT22;29120;52.006;6.020;2022-09-09T02:56:27;15.10;96.60
43524;DHT22;29120;52.006;6.020;2022-09-09T02:58:55;15.10;96.60
43524;DHT22;29120;52.006;6.020;2022-09-09T03:01:21;15.10;96.60
43524;DHT22;29120;52.006;6.020;2022-09-09T03:03:46;15.00;96.60
43524;DHT22;29120;52.006;6.020;2022-09-09T03:06:12;15.10;96.60
43524;DHT22;29120;52.006;6.020;2022-09-09T03:08:38;15.00;96.60
43524;DHT22;29120;52.006;6.020;2022-09-09T03:11:03;15.00;96.60
43524;DHT22;29120;52.006;6.020;2022-09-09T03:13:29;15.00;96.90
43524;DHT22;29120;52.006;6.020;2022-09-09T03:15:55;15.00;96.70
43524;DHT22;29120;52.006;6.020;2022-09-09T03:18:21;14.90;96.70
43524;DHT22;29120;52.006;6.020;2022-09-09T03:20:46;14.90;96.70
43524;DHT22;29120;52.006;6.020;2022-09-09T03:23:16;14.90;96.70
43524;DHT22;29120;52.006;6.020;2022-09-09T03:25:49;14.90;96.80
43524;DHT22;29120;52.006;6.020;2022-09-09T03:28:15;14.90;96.80
43524;DHT22;29120;52.006;6.020;2022-09-09T03:30:41;14.90;96.80
43524;DHT22;29120;52.006;6.020;2022-09-09T03:33:06;14.90;96.90
43524;DHT22;29120;52.006;6.020;2022-09-09T03:35:32;14.90;97.00
43524;DHT22;29120;52.006;6.020;2022-09-09T03:37:57;14.90;97.00
43524;DHT22;29120;52.006;6.020;2022-09-09T03:40:23;14.90;97.00
43524;DHT22;29120;52.006;6.020;2022-09-09T03:42:48;14.90;97.00
43524;DHT22;29120;52.006;6.020;2022-09-09T03:45:14;14.90;97.00
43524;DHT22;29120;52.006;6.020;2022-09-09T03:47:40;14.90;97.10
43524;DHT22;29120;52.006;6.020;2022-09-09T03:50:07;14.90;97.10
43524;DHT22;29120;52.006;6.020;2022-09-09T03:52:36;14.90;97.10
43524;DHT22;29120;52.006;6.020;2022-09-09T03:55:01;14.80;97.10
43524;DHT22;29120;52.006;6.020;2022-09-09T03:57:28;14.80;97.20
43524;DHT22;29120;52.006;6.020;2022-09-09T03:59:55;14.80;97.20
43524;DHT22;29120;52.006;6.020;2022-09-09T04:02:21;14.90;97.20
43524;DHT22;29120;52.006;6.020;2022-09-09T04:04:46;14.80;97.20
43524;DHT22;29120;52.006;6.020;2022-09-09T04:07:12;14.90;97.20
43524;DHT22;29120;52.006;6.020;2022-09-09T04:09:38;14.90;97.10
43524;DHT22;29120;52.006;6.020;2022-09-09T04:12:04;15.00;97.10
43524;DHT22;29120;52.006;6.020;2022-09-09T04:14:30;15.00;97.10
43524;DHT22;29120;52.006;6.020;2022-09-09T04:16:55;15.10;97.00
43524;DHT22;29120;52.006;6.020;2022-09-09T04:19:22;15.10;97.00
43524;DHT22;29120;52.006;6.020;2022-09-09T04:21:48;15.10;97.00
43524;DHT22;29120;52.006;6.020;2022-09-09T04:24:15;15.10;97.00
43524;DHT22;29120;52.006;6.020;2022-09-09T04:26:41;15.20;97.00
43524;DHT22;29120;52.006;6.020;2022-09-09T04:29:07;15.20;97.10
43524;DHT22;29120;52.006;6.020;2022-09-09T04:31:33;15.20;97.10
43524;DHT22;29120;52.006;6.020;2022-09-09T04:33:59;15.20;97.10
43524;DHT22;29120;52.006;6.020;2022-09-09T04:36:31;15.30;97.10
43524;DHT22;29120;52.006;6.020;2022-09-09T04:38:57;15.30;97.10
43524;DHT22;29120;52.006;6.020;2022-09-09T04:41:22;15.30;97.10
43524;DHT22;29120;52.006;6.020;2022-09-09T04:43:49;15.30;97.10
43524;DHT22;29120;52.006;6.020;2022-09-09T04:46:15;15.40;97.20
43524;DHT22;29120;52.006;6.020;2022-09-09T04:48:42;15.40;97.20
43524;DHT22;29120;52.006;6.020;2022-09-09T04:51:11;15.40;97.10
43524;DHT22;29120;52.006;6.020;2022-09-09T04:53:37;15.40;97.20
43524;DHT22;29120;52.006;6.020;2022-09-09T04:56:08;15.50;97.20
43524;DHT22;29120;52.006;6.020;2022-09-09T04:58:36;15.50;97.20
43524;DHT22;29120;52.006;6.020;2022-09-09T05:01:06;15.50;97.10
43524;DHT22;29120;52.006;6.020;2022-09-09T05:03:33;15.60;97.10
43524;DHT22;29120;52.006;6.020;2022-09-09T05:06:07;15.60;97.00
43524;DHT22;29120;52.006;6.020;2022-09-09T05:08:34;15.60;97.00
43524;DHT22;29120;52.006;6.020;2022-09-09T05:10:59;15.60;97.30
43524;DHT22;29120;52.006;6.020;2022-09-09T05:13:26;15.60;97.10
43524;DHT22;29120;52.006;6.020;2022-09-09T05:15:53;15.60;97.10
43524;DHT22;29120;52.006;6.020;2022-09-09T05:18:19;15.60;97.00
43524;DHT22;29120;52.006;6.020;2022-09-09T05:20:44;15.60;97.00
43524;DHT22;29120;52.006;6.020;2022-09-09T05:23:10;15.60;97.10
43524;DHT22;29120;52.006;6.020;2022-09-09T05:25:38;15.60;97.10
43524;DHT22;29120;52.006;6.020;2022-09-09T05:28:04;15.60;97.10
43524;DHT22;29120;52.006;6.020;2022-09-09T05:30:30;15.70;97.00
43524;DHT22;29120;52.006;6.020;2022-09-09T05:32:56;15.70;97.10
43524;DHT22;29120;52.006;6.020;2022-09-09T05:35:22;15.80;97.10
43524;DHT22;29120;52.006;6.020;2022-09-09T05:37:48;15.80;97.10
43524;DHT22;29120;52.006;6.020;2022-09-09T05:40:14;15.90;97.00
43524;DHT22;29120;52.006;6.020;2022-09-09T05:42:40;15.90;97.30
43524;DHT22;29120;52.006;6.020;2022-09-09T05:45:07;15.90;97.00
43524;DHT22;29120;52.006;6.020;2022-09-09T05:47:33;16.00;97.00
43524;DHT22;29120;52.006;6.020;2022-09-09T05:49:59;16.00;97.00
43524;DHT22;29120;52.006;6.020;2022-09-09T05:52:24;16.00;97.00
43524;DHT22;29120;52.006;6.020;2022-09-09T05:54:51;16.10;97.00
43524;DHT22;29120;52.006;6.020;2022-09-09T05:57:17;16.10;97.10
43524;DHT22;29120;52.006;6.020;2022-09-09T05:59:44;16.10;97.10
43524;DHT22;29120;52.006;6.020;2022-09-09T06:02:10;16.10;97.10
43524;DHT22;29120;52.006;6.020;2022-09-09T06:04:35;16.10;97.10
43524;DHT22;29120;52.006;6.020;2022-09-09T06:07:01;16.30;97.10
43524;DHT22;29120;52.006;6.020;2022-09-09T06:09:26;16.50;96.70
43524;DHT22;29120;52.006;6.020;2022-09-09T06:11:52;16.80;96.30
43524;DHT22;29120;52.006;6.020;2022-09-09T06:14:18;16.90;96.10
43524;DHT22;29120;52.006;6.020;2022-09-09T06:16:44;17.00;95.90
43524;DHT22;29120;52.006;6.020;2022-09-09T06:19:11;17.20;95.90
43524;DHT22;29120;52.006;6.020;2022-09-09T06:21:38;17.50;95.70
43524;DHT22;29120;52.006;6.020;2022-09-09T06:24:04;17.80;95.40
43524;DHT22;29120;52.006;6.020;2022-09-09T06:26:35;18.00;94.80
43524;DHT22;29120;52.006;6.020;2022-09-09T06:29:03;18.10;94.50
43524;DHT22;29120;52.006;6.020;2022-09-09T06:31:33;18.10;94.40
43524;DHT22;29120;52.006;6.020;2022-09-09T06:34:00;18.00;94.50
43524;DHT22;29120;52.006;6.020;2022-09-09T06:36:28;17.80;94.60
43524;DHT22;29120;52.006;6.020;2022-09-09T06:38:54;17.60;94.80
43524;DHT22;29120;52.006;6.020;2022-09-09T06:41:21;17.60;94.90
43524;DHT22;29120;52.006;6.020;2022-09-09T06:43:47;17.50;95.00
43524;DHT22;29120;52.006;6.020;2022-09-09T06:46:16;17.40;95.10
43524;DHT22;29120;52.006;6.020;2022-09-09T06:48:42;17.70;95.20
43524;DHT22;29120;52.006;6.020;2022-09-09T06:51:21;18.10;94.70
43524;DHT22;29120;52.006;6.020;2022-09-09T06:53:50;18.20;94.20
43524;DHT22;29120;52.006;6.020;2022-09-09T06:56:27;18.40;94.00
43524;DHT22;29120;52.006;6.020;2022-09-09T06:58:54;18.50;93.80
43524;DHT22;29120;52.006;6.020;2022-09-09T07:01:22;18.60;93.50
43524;DHT22;29120;52.006;6.020;2022-09-09T07:03:50;18.70;93.20
43524;DHT22;29120;52.006;6.020;2022-09-09T07:06:22;18.90;93.30
43524;DHT22;29120;52.006;6.020;2022-09-09T07:08:53;19.10;92.70
43524;DHT22;29120;52.006;6.020;2022-09-09T07:11:20;19.30;92.30
43524;DHT22;29120;52.006;6.020;2022-09-09T07:13:47;19.50;92.10
43524;DHT22;29120;52.006;6.020;2022-09-09T07:16:18;19.50;91.70
43524;DHT22;29120;52.006;6.020;2022-09-09T07:18:44;19.30;91.80
43524;DHT22;29120;52.006;6.020;2022-09-09T07:21:11;19.10;91.70
43524;DHT22;29120;52.006;6.020;2022-09-09T07:23:38;18.90;92.10
43524;DHT22;29120;52.006;6.020;2022-09-09T07:26:12;18.70;92.20
43524;DHT22;29120;52.006;6.020;2022-09-09T07:28:39;18.70;92.50
43524;DHT22;29120;52.006;6.020;2022-09-09T07:31:06;18.80;92.30
43524;DHT22;29120;52.006;6.020;2022-09-09T07:33:34;19.10;91.90
43524;DHT22;29120;52.006;6.020;2022-09-09T07:36:17;19.20;91.50
43524;DHT22;29120;52.006;6.020;2022-09-09T07:38:48;19.20;91.30
43524;DHT22;29120;52.006;6.020;2022-09-09T07:41:38;19.10;91.40
43524;DHT22;29120;52.006;6.020;2022-09-09T07:44:07;19.00;91.20
43524;DHT22;29120;52.006;6.020;2022-09-09T07:46:33;18.80;91.50
43524;DHT22;29120;52.006;6.020;2022-09-09T07:48:59;18.70;91.70
43524;DHT22;29120;52.006;6.020;2022-09-09T07:51:28;18.70;91.90
43524;DHT22;29120;52.006;6.020;2022-09-09T07:54:00;18.70;92.00
43524;DHT22;29120;52.006;6.020;2022-09-09T07:56:27;18.70;91.70
43524;DHT22;29120;52.006;6.020;2022-09-09T07:58:54;18.90;91.70
43524;DHT22;29120;52.006;6.020;2022-09-09T08:01:31;19.10;91.30
43524;DHT22;29120;52.006;6.020;2022-09-09T08:04:03;19.30;91.00
43524;DHT22;29120;52.006;6.020;2022-09-09T08:06:32;19.30;91.00
43524;DHT22;29120;52.006;6.020;2022-09-09T08:08:58;19.20;90.90
43524;DHT22;29120;52.006;6.020;2022-09-09T08:11:25;19.20;90.60
43524;DHT22;29120;52.006;6.020;2022-09-09T08:13:52;19.20;90.60
43524;DHT22;29120;52.006;6.020;2022-09-09T08:16:23;19.20;90.70
43524;DHT22;29120;52.006;6.020;2022-09-09T08:18:50;19.30;90.70
43524;DHT22;29120;52.006;6.020;2022-09-09T08:21:22;19.40;90.80
43524;DHT22;29120;52.006;6.020;2022-09-09T08:23:51;19.40;90.50
43524;DHT22;29120;52.006;6.020;2022-09-09T08:26:29;19.30;90.00
43524;DHT22;29120;52.006;6.020;2022-09-09T08:28:57;19.10;89.90
43524;DHT22;29120;52.006;6.020;2022-09-09T08:31:26;18.90;89.80
43524;DHT22;29120;52.006;6.020;2022-09-09T08:33:53;18.80;90.30
43524;DHT22;29120;52.006;6.020;2022-09-09T08:36:21;18.70;90.30
43524;DHT22;29120;52.006;6.020;2022-09-09T08:38:49;18.70;90.40
43524;DHT22;29120;52.006;6.020;2022-09-09T08:52:16;18.90;89.90
43524;DHT22;29120;52.006;6.020;2022-09-09T08:54:44;18.90;90.00
43524;DHT22;29120;52.006;6.020;2022-09-09T08:57:16;18.90;89.90
43524;DHT22;29120;52.006;6.020;2022-09-09T08:59:43;18.80;90.00
43524;DHT22;29120;52.006;6.020;2022-09-09T09:02:21;18.70;89.60
43524;DHT22;29120;52.006;6.020;2022-09-09T09:04:53;18.60;90.00
43524;DHT22;29120;52.006;6.020;2022-09-09T09:12:54;18.50;90.40
43524;DHT22;29120;52.006;6.020;2022-09-09T09:15:31;18.60;90.50
43524;DHT22;29120;52.006;6.020;2022-09-09T09:18:02;18.60;90.40
43524;DHT22;29120;52.006;6.020;2022-09-09T09:20:48;18.60;90.30
43524;DHT22;29120;52.006;6.020;2022-09-09T09:23:22;18.70;90.10
43524;DHT22;29120;52.006;6.020;2022-09-09T09:25:48;18.80;90.00
43524;DHT22;29120;52.006;6.020;2022-09-09T09:28:18;18.90;89.10
43524;DHT22;29120;52.006;6.020;2022-09-09T09:30:59;19.10;88.20
43524;DHT22;29120;52.006;6.020;2022-09-09T09:33:47;19.10;87.40
43524;DHT22;29120;52.006;6.020;2022-09-09T09:36:13;19.10;87.20
43524;DHT22;29120;52.006;6.020;2022-09-09T09:38:59;19.10;87.50
43524;DHT22;29120;52.006;6.020;2022-09-09T09:41:40;19.20;87.60
43524;DHT22;29120;52.006;6.020;2022-09-09T09:44:26;19.30;87.60
43524;DHT22;29120;52.006;6.020;2022-09-09T09:47:04;19.30;87.30
43524;DHT22;29120;52.006;6.020;2022-09-09T09:49:30;19.20;87.00
43524;DHT22;29120;52.006;6.020;2022-09-09T09:52:00;19.20;86.50
43524;DHT22;29120;52.006;6.020;2022-09-09T09:54:41;19.50;86.50
43524;DHT22;29120;52.006;6.020;2022-09-09T09:57:15;19.60;85.70
43524;DHT22;29120;52.006;6.020;2022-09-09T09:59:42;19.50;85.30
43524;DHT22;29120;52.006;6.020;2022-09-09T10:04:39;19.50;85.40
43524;DHT22;29120;52.006;6.020;2022-09-09T10:07:33;19.60;84.80
43524;DHT22;29120;52.006;6.020;2022-09-09T10:09:59;19.70;84.10
43524;DHT22;29120;52.006;6.020;2022-09-09T10:15:13;19.50;83.80
43524;DHT22;29120;52.006;6.020;2022-09-09T10:20:32;19.30;84.40
43524;DHT22;29120;52.006;6.020;2022-09-09T10:42:45;18.70;88.50
43524;DHT22;29120;52.006;6.020;2022-09-09T10:45:18;18.80;88.10
43524;DHT22;29120;52.006;6.020;2022-09-09T10:48:28;18.80;87.60
43524;DHT22;29120;52.006;6.020;2022-09-09T10:56:38;18.80;87.70
43524;DHT22;29120;52.006;6.020;2022-09-09T10:59:17;18.80;87.60
43524;DHT22;29120;52.006;6.020;2022-09-09T11:02:34;18.80;87.20
43524;DHT22;29120;52.006;6.020;2022-09-09T11:05:05;18.90;86.80
43524;DHT22;29120;52.006;6.020;2022-09-09T11:08:06;19.10;86.40
43524;DHT22;29120;52.006;6.020;2022-09-09T11:13:55;19.50;85.80
43524;DHT22;29120;52.006;6.020;2022-09-09T11:16:43;19.70;85.00
43524;DHT22;29120;52.006;6.020;2022-09-09T11:19:32;19.60;84.00
43524;DHT22;29120;52.006;6.020;2022-09-09T11:22:06;19.50;84.10
43524;DHT22;29120;52.006;6.020;2022-09-09T11:24:47;19.40;84.50
43524;DHT22;29120;52.006;6.020;2022-09-09T11:27:20;19.30;84.60
43524;DHT22;29120;52.006;6.020;2022-09-09T11:32:54;19.30;85.50
43524;DHT22;29120;52.006;6.020;2022-09-09T11:38:18;19.50;87.00
43524;DHT22;29120;52.006;6.020;2022-09-09T11:40:45;19.70;86.80
43524;DHT22;29120;52.006;6.020;2022-09-09T11:43:18;19.80;85.90
43524;DHT22;29120;52.006;6.020;2022-09-09T11:45:55;19.90;86.00
43524;DHT22;29120;52.006;6.020;2022-09-09T11:48:43;19.80;86.10
43524;DHT22;29120;52.006;6.020;2022-09-09T11:53:56;19.60;87.80
43524;DHT22;29120;52.006;6.020;2022-09-09T11:56:32;19.50;88.10
43524;DHT22;29120;52.006;6.020;2022-09-09T11:59:17;19.30;89.40
43524;DHT22;29120;52.006;6.020;2022-09-09T12:01:45;19.40;90.00
43524;DHT22;29120;52.006;6.020;2022-09-09T12:12:39;20.10;87.60
43524;DHT22;29120;52.006;6.020;2022-09-09T12:17:47;19.60;90.60
43524;DHT22;29120;52.006;6.020;2022-09-09T12:20:14;19.40;91.40
43524;DHT22;29120;52.006;6.020;2022-09-09T12:25:43;19.50;91.70
43524;DHT22;29120;52.006;6.020;2022-09-09T12:30:59;19.50;91.00
43524;DHT22;29120;52.006;6.020;2022-09-09T12:33:34;19.60;91.10
43524;DHT22;29120;52.006;6.020;2022-09-09T12:36:01;19.70;90.80
43524;DHT22;29120;52.006;6.020;2022-09-09T12:38:39;19.60;90.20
43524;DHT22;29120;52.006;6.020;2022-09-09T12:41:05;19.50;90.50
43524;DHT22;29120;52.006;6.020;2022-09-09T12:43:31;19.40;90.80
43524;DHT22;29120;52.006;6.020;2022-09-09T12:46:01;19.80;90.70
43524;DHT22;29120;52.006;6.020;2022-09-09T12:48:40;19.90;90.30
43524;DHT22;29120;52.006;6.020;2022-09-09T12:51:18;19.90;90.10
43524;DHT22;29120;52.006;6.020;2022-09-09T12:53:44;20.00;89.40
43524;DHT22;29120;52.006;6.020;2022-09-09T12:56:19;20.00;89.00
43524;DHT22;29120;52.006;6.020;2022-09-09T12:58:47;20.10;89.30
43524;DHT22;29120;52.006;6.020;2022-09-09T13:01:22;20.40;88.70
43524;DHT22;29120;52.006;6.020;2022-09-09T13:03:48;21.20;87.70
43524;DHT22;29120;52.006;6.020;2022-09-09T13:06:20;21.90;84.60
43524;DHT22;29120;52.006;6.020;2022-09-09T13:08:48;21.80;82.80
43524;DHT22;29120;52.006;6.020;2022-09-09T13:11:19;21.40;82.70
43524;DHT22;29120;52.006;6.020;2022-09-09T13:13:55;21.10;83.20
43524;DHT22;29120;52.006;6.020;2022-09-09T13:16:32;20.70;83.90
43524;DHT22;29120;52.006;6.020;2022-09-09T13:18:59;20.50;85.00
43524;DHT22;29120;52.006;6.020;2022-09-09T13:21:37;20.80;84.60
43524;DHT22;29120;52.006;6.020;2022-09-09T13:24:05;20.70;84.80
43524;DHT22;29120;52.006;6.020;2022-09-09T13:26:33;20.80;85.50
43524;DHT22;29120;52.006;6.020;2022-09-09T13:29:18;21.40;85.00
43524;DHT22;29120;52.006;6.020;2022-09-09T13:31:45;21.80;83.30
43524;DHT22;29120;52.006;6.020;2022-09-09T13:34:32;22.00;82.30
43524;DHT22;29120;52.006;6.020;2022-09-09T13:37:03;22.00;81.80
43524;DHT22;29120;52.006;6.020;2022-09-09T13:39:33;21.90;81.80
43524;DHT22;29120;52.006;6.020;2022-09-09T13:41:59;21.70;82.10
43524;DHT22;29120;52.006;6.020;2022-09-09T13:44:35;21.40;81.60
43524;DHT22;29120;52.006;6.020;2022-09-09T13:47:17;21.00;82.40
43524;DHT22;29120;52.006;6.020;2022-09-09T13:49:44;20.80;83.00
43524;DHT22;29120;52.006;6.020;2022-09-09T13:52:16;20.60;83.50
43524;DHT22;29120;52.006;6.020;2022-09-09T13:54:43;20.60;84.10
43524;DHT22;29120;52.006;6.020;2022-09-09T13:57:25;20.60;84.40
43524;DHT22;29120;52.006;6.020;2022-09-09T13:59:52;20.60;84.30
43524;DHT22;29120;52.006;6.020;2022-09-09T14:02:20;20.30;84.50
43524;DHT22;29120;52.006;6.020;2022-09-09T14:04:46;20.10;85.00
43524;DHT22;29120;52.006;6.020;2022-09-09T14:07:14;20.00;85.80
43524;DHT22;29120;52.006;6.020;2022-09-09T14:09:40;19.90;86.60
43524;DHT22;29120;52.006;6.020;2022-09-09T14:12:13;19.80;87.00
43524;DHT22;29120;52.006;6.020;2022-09-09T14:14:40;19.70;87.20
43524;DHT22;29120;52.006;6.020;2022-09-09T14:17:07;19.60;87.40
43524;DHT22;29120;52.006;6.020;2022-09-09T14:19:33;19.60;87.40
43524;DHT22;29120;52.006;6.020;2022-09-09T14:21:58;19.70;87.40
43524;DHT22;29120;52.006;6.020;2022-09-09T14:24:24;19.90;87.40
43524;DHT22;29120;52.006;6.020;2022-09-09T14:26:50;20.30;87.30
43524;DHT22;29120;52.006;6.020;2022-09-09T14:29:16;20.50;86.80
43524;DHT22;29120;52.006;6.020;2022-09-09T14:31:41;20.60;86.20
43524;DHT22;29120;52.006;6.020;2022-09-09T14:34:07;20.50;86.10
43524;DHT22;29120;52.006;6.020;2022-09-09T14:36:33;20.30;86.40
43524;DHT22;29120;52.006;6.020;2022-09-09T14:38:58;20.30;86.90
43524;DHT22;29120;52.006;6.020;2022-09-09T14:41:24;20.10;87.30
43524;DHT22;29120;52.006;6.020;2022-09-09T14:43:50;20.00;87.80
43524;DHT22;29120;52.006;6.020;2022-09-09T14:46:18;19.80;88.20
43524;DHT22;29120;52.006;6.020;2022-09-09T14:48:43;19.70;88.60
43524;DHT22;29120;52.006;6.020;2022-09-09T14:51:13;19.70;89.00
43524;DHT22;29120;52.006;6.020;2022-09-09T14:53:39;19.70;89.30
43524;DHT22;29120;52.006;6.020;2022-09-09T14:56:10;19.80;89.30
43524;DHT22;29120;52.006;6.020;2022-09-09T14:58:37;19.90;89.20
43524;DHT22;29120;52.006;6.020;2022-09-09T15:01:08;19.90;88.70
43524;DHT22;29120;52.006;6.020;2022-09-09T15:03:36;19.90;88.70
43524;DHT22;29120;52.006;6.020;2022-09-09T15:06:10;19.70;88.70
43524;DHT22;29120;52.006;6.020;2022-09-09T15:08:37;19.70;89.20
43524;DHT22;29120;52.006;6.020;2022-09-09T15:11:04;19.70;89.50
43524;DHT22;29120;52.006;6.020;2022-09-09T15:13:30;19.70;89.50
43524;DHT22;29120;52.006;6.020;2022-09-09T15:15:55;19.70;89.70
43524;DHT22;29120;52.006;6.020;2022-09-09T15:18:23;19.80;89.80
43524;DHT22;29120;52.006;6.020;2022-09-09T15:20:48;19.90;89.60
43524;DHT22;29120;52.006;6.020;2022-09-09T15:23:14;19.90;89.30
43524;DHT22;29120;52.006;6.020;2022-09-09T15:25:51;19.90;89.40
43524;DHT22;29120;52.006;6.020;2022-09-09T15:28:17;19.90;89.50
43524;DHT22;29120;52.006;6.020;2022-09-09T15:30:43;19.90;89.50
43524;DHT22;29120;52.006;6.020;2022-09-09T15:33:10;19.90;89.50
43524;DHT22;29120;52.006;6.020;2022-09-09T15:35:36;20.00;89.70
43524;DHT22;29120;52.006;6.020;2022-09-09T15:38:02;19.90;89.60
43524;DHT22;29120;52.006;6.020;2022-09-09T15:40:30;19.90;89.60
43524;DHT22;29120;52.006;6.020;2022-09-09T15:42:57;19.90;89.70
43524;DHT22;29120;52.006;6.020;2022-09-09T15:45:23;19.90;89.90
43524;DHT22;29120;52.006;6.020;2022-09-09T15:47:49;19.90;90.00
43524;DHT22;29120;52.006;6.020;2022-09-09T15:50:14;19.80;90.00
43524;DHT22;29120;52.006;6.020;2022-09-09T15:52:40;19.70;89.70
43524;DHT22;29120;52.006;6.020;2022-09-09T15:55:06;19.60;89.70
43524;DHT22;29120;52.006;6.020;2022-09-09T15:57:33;19.60;89.80
43524;DHT22;29120;52.006;6.020;2022-09-09T16:00:01;19.60;89.70
43524;DHT22;29120;52.006;6.020;2022-09-09T16:02:26;19.60;90.00
43524;DHT22;29120;52.006;6.020;2022-09-09T16:04:52;19.60;89.80
43524;DHT22;29120;52.006;6.020;2022-09-09T16:07:17;19.60;89.90
43524;DHT22;29120;52.006;6.020;2022-09-09T16:09:43;19.60;89.60
43524;DHT22;29120;52.006;6.020;2022-09-09T16:12:09;19.60;89.10
43524;DHT22;29120;52.006;6.020;2022-09-09T16:14:38;19.50;89.20
43524;DHT22;29120;52.006;6.020;2022-09-09T16:17:05;19.50;89.20
43524;DHT22;29120;52.006;6.020;2022-09-09T16:19:31;19.50;89.20
43524;DHT22;29120;52.006;6.020;2022-09-09T16:21:57;19.50;89.70
43524;DHT22;29120;52.006;6.020;2022-09-09T16:24:23;19.40;90.30
43524;DHT22;29120;52.006;6.020;2022-09-09T16:26:53;19.10;90.90
43524;DHT22;29120;52.006;6.020;2022-09-09T16:29:20;18.80;91.50
43524;DHT22;29120;52.006;6.020;2022-09-09T16:31:46;18.70;91.70
43524;DHT22;29120;52.006;6.020;2022-09-09T16:34:13;18.50;91.90
43524;DHT22;29120;52.006;6.020;2022-09-09T16:36:40;18.50;92.10
43524;DHT22;29120;52.006;6.020;2022-09-09T16:39:09;18.40;92.50
43524;DHT22;29120;52.006;6.020;2022-09-09T16:41:36;18.40;92.40
43524;DHT22;29120;52.006;6.020;2022-09-09T16:44:04;18.30;92.60
43524;DHT22;29120;52.006;6.020;2022-09-09T16:46:33;18.30;92.90
43524;DHT22;29120;52.006;6.020;2022-09-09T16:49:00;18.30;92.90
43524;DHT22;29120;52.006;6.020;2022-09-09T16:51:29;18.30;93.00
43524;DHT22;29120;52.006;6.020;2022-09-09T16:53:56;18.30;93.00
43524;DHT22;29120;52.006;6.020;2022-09-09T16:56:25;18.20;93.10
43524;DHT22;29120;52.006;6.020;2022-09-09T16:58:55;18.20;93.30
43524;DHT22;29120;52.006;6.020;2022-09-09T17:01:25;18.20;93.40
43524;DHT22;29120;52.006;6.020;2022-09-09T17:03:53;18.20;93.60
43524;DHT22;29120;52.006;6.020;2022-09-09T17:06:19;18.20;93.50
43524;DHT22;29120;52.006;6.020;2022-09-09T17:08:44;18.20;93.50
43524;DHT22;29120;52.006;6.020;2022-09-09T17:11:18;18.20;93.60
43524;DHT22;29120;52.006;6.020;2022-09-09T17:13:44;18.20;93.50
43524;DHT22;29120;52.006;6.020;2022-09-09T17:16:11;18.20;93.40
43524;DHT22;29120;52.006;6.020;2022-09-09T17:18:37;18.10;93.40
43524;DHT22;29120;52.006;6.020;2022-09-09T17:21:05;18.10;93.60
43524;DHT22;29120;52.006;6.020;2022-09-09T17:23:32;18.10;93.60
43524;DHT22;29120;52.006;6.020;2022-09-09T17:25:59;18.10;93.60
43524;DHT22;29120;52.006;6.020;2022-09-09T17:28:26;18.20;93.70
43524;DHT22;29120;52.006;6.020;2022-09-09T17:30:59;18.10;93.70
43524;DHT22;29120;52.006;6.020;2022-09-09T17:33:27;18.10;93.80
43524;DHT22;29120;52.006;6.020;2022-09-09T17:36:06;18.00;93.80
43524;DHT22;29120;52.006;6.020;2022-09-09T17:38:32;17.90;94.00